sensor_id;sensor_type;location;lat;lon;timestamp;temperature;humidity
32400;DHT22;45045;45.440;9.178;2023-04-03T00:02:37;17.30;81.20
32400;DHT22;45045;45.440;9.178;2023-04-03T00:05:06;17.30;81.30
32400;DHT22;45045;45.440;9.178;2023-04-03T00:07:31;17.20;81.90
32400;DHT22;45045;45.440;9.178;2023-04-03T00:10:00;17.20;81.80
32400;DHT22;45045;45.440;9.178;2023-04-03T00:12:28;17.20;82.20
32400;DHT22;45045;45.440;9.178;2023-04-03T00:14:56;17.10;83.20
32400;DHT22;45045;45.440;9.178;2023-04-03T00:17:24;17.10;82.50
32400;DHT22;45045;45.440;9.178;2023-04-03T00:19:52;17.00;82.90
32400;DHT22;45045;45.440;9.178;2023-04-03T00:22:25;17.00;82.70
32400;DHT22;45045;45.440;9.178;2023-04-03T00:24:59;17.00;82.80
32400;DHT22;45045;45.440;9.178;2023-04-03T00:27:45;17.00;82.80
32400;DHT22;45045;45.440;9.178;2023-04-03T00:30:23;17.00;83.20
32400;DHT22;45045;45.440;9.178;2023-04-03T00:33:03;16.90;83.50
32400;DHT22;45045;45.440;9.178;2023-04-03T00:35:29;17.00;83.90
32400;DHT22;45045;45.440;9.178;2023-04-03T00:37:55;16.90;84.60
32400;DHT22;45045;45.440;9.178;2023-04-03T00:40:24;16.90;84.60
32400;DHT22;45045;45.440;9.178;2023-04-03T00:42:51;16.80;84.80
32400;DHT22;45045;45.440;9.178;2023-04-03T00:45:40;16.80;84.90
32400;DHT22;45045;45.440;9.178;2023-04-03T00:48:22;16.80;85.10
32400;DHT22;45045;45.440;9.178;2023-04-03T00:50:53;16.80;85.30
32400;DHT22;45045;45.440;9.178;2023-04-03T00:56:19;16.70;85.00
32400;DHT22;45045;45.440;9.178;2023-04-03T00:59:40;16.70;86.00
32400;DHT22;45045;45.440;9.178;2023-04-03T01:02:00;16.60;86.00
32400;DHT22;45045;45.440;9.178;2023-04-03T01:04:54;16.60;86.00
32400;DHT22;45045;45.440;9.178;2023-04-03T01:07:22;16.60;86.20
32400;DHT22;45045;45.440;9.178;2023-04-03T01:09:56;16.70;86.30
32400;DHT22;45045;45.440;9.178;2023-04-03T01:12:43;16.70;86.50
32400;DHT22;45045;45.440;9.178;2023-04-03T01:15:11;16.70;86.50
32400;DHT22;45045;45.440;9.178;2023-04-03T01:17:47;16.60;86.60
32400;DHT22;45045;45.440;9.178;2023-04-03T01:20:42;16.60;86.70
32400;DHT22;45045;45.440;9.178;2023-04-03T01:25:52;16.60;87.50
32400;DHT22;45045;45.440;9.178;2023-04-03T01:28:30;16.60;88.00
32400;DHT22;45045;45.440;9.178;2023-04-03T01:31:00;16.50;87.90
32400;DHT22;45045;45.440;9.178;2023-04-03T01:33:30;16.60;88.00
32400;DHT22;45045;45.440;9.178;2023-04-03T01:35:59;16.50;87.80
32400;DHT22;45045;45.440;9.178;2023-04-03T01:38:27;16.50;88.10
32400;DHT22;45045;45.440;9.178;2023-04-03T01:41:02;16.50;88.10
32400;DHT22;45045;45.440;9.178;2023-04-03T01:43:30;16.50;88.00
32400;DHT22;45045;45.440;9.178;2023-04-03T01:45:55;16.40;87.80
32400;DHT22;45045;45.440;9.178;2023-04-03T01:48:21;16.40;87.90
32400;DHT22;45045;45.440;9.178;2023-04-03T01:50:51;16.40;88.20
32400;DHT22;45045;45.440;9.178;2023-04-03T01:53:17;16.30;87.90
32400;DHT22;45045;45.440;9.178;2023-04-03T01:55:42;16.30;88.00
32400;DHT22;45045;45.440;9.178;2023-04-03T01:58:13;16.30;88.30
32400;DHT22;45045;45.440;9.178;2023-04-03T02:00:38;16.30;88.40
32400;DHT22;45045;45.440;9.178;2023-04-03T02:03:09;16.20;88.20
32400;DHT22;45045;45.440;9.178;2023-04-03T02:05:37;16.20;88.70
32400;DHT22;45045;45.440;9.178;2023-04-03T02:08:03;16.20;88.80
32400;DHT22;45045;45.440;9.178;2023-04-03T02:10:28;16.10;87.90
32400;DHT22;45045;45.440;9.178;2023-04-03T02:12:54;16.10;88.40
32400;DHT22;45045;45.440;9.178;2023-04-03T02:15:25;16.10;88.60
32400;DHT22;45045;45.440;9.178;2023-04-03T02:17:50;16.10;88.00
32400;DHT22;45045;45.440;9.178;2023-04-03T02:20:16;16.10;88.30
32400;DHT22;45045;45.440;9.178;2023-04-03T02:22:42;16.10;88.80
32400;DHT22;45045;45.440;9.178;2023-04-03T02:25:10;16.00;88.50
32400;DHT22;45045;45.440;9.178;2023-04-03T02:27:38;16.00;88.80
32400;DHT22;45045;45.440;9.178;2023-04-03T02:30:06;16.00;88.80
32400;DHT22;45045;45.440;9.178;2023-04-03T02:32:34;16.00;88.90
32400;DHT22;45045;45.440;9.178;2023-04-03T02:35:00;16.00;89.90
32400;DHT22;45045;45.440;9.178;2023-04-03T02:37:28;15.90;90.80
32400;DHT22;45045;45.440;9.178;2023-04-03T02:39:54;15.80;90.40
32400;DHT22;45045;45.440;9.178;2023-04-03T02:42:22;15.80;91.00
32400;DHT22;45045;45.440;9.178;2023-04-03T02:44:47;15.80;91.10
32400;DHT22;45045;45.440;9.178;2023-04-03T02:47:13;15.80;91.40
32400;DHT22;45045;45.440;9.178;2023-04-03T02:49:41;15.80;91.10
32400;DHT22;45045;45.440;9.178;2023-04-03T02:52:11;15.80;90.50
32400;DHT22;45045;45.440;9.178;2023-04-03T02:54:37;15.80;90.70
32400;DHT22;45045;45.440;9.178;2023-04-03T02:57:08;15.70;90.70
32400;DHT22;45045;45.440;9.178;2023-04-03T02:59:35;15.70;90.80
32400;DHT22;45045;45.440;9.178;2023-04-03T03:02:03;15.70;90.80
32400;DHT22;45045;45.440;9.178;2023-04-03T03:04:31;15.70;90.70
32400;DHT22;45045;45.440;9.178;2023-04-03T03:06:56;15.60;90.70
32400;DHT22;45045;45.440;9.178;2023-04-03T03:09:22;15.60;90.90
32400;DHT22;45045;45.440;9.178;2023-04-03T03:11:47;15.60;90.80
32400;DHT22;45045;45.440;9.178;2023-04-03T03:14:13;15.50;91.10
32400;DHT22;45045;45.440;9.178;2023-04-03T03:16:39;15.50;91.30
32400;DHT22;45045;45.440;9.178;2023-04-03T03:19:04;15.40;91.20
32400;DHT22;45045;45.440;9.178;2023-04-03T03:21:30;15.40;91.60
32400;DHT22;45045;45.440;9.178;2023-04-03T03:24:01;15.50;91.80
32400;DHT22;45045;45.440;9.178;2023-04-03T03:26:29;15.50;91.50
32400;DHT22;45045;45.440;9.178;2023-04-03T03:28:55;15.40;91.30
32400;DHT22;45045;45.440;9.178;2023-04-03T03:31:28;15.40;92.40
32400;DHT22;45045;45.440;9.178;2023-04-03T03:33:53;15.40;92.50
32400;DHT22;45045;45.440;9.178;2023-04-03T03:36:21;15.40;92.30
32400;DHT22;45045;45.440;9.178;2023-04-03T03:38:47;15.40;92.40
32400;DHT22;45045;45.440;9.178;2023-04-03T03:41:15;15.40;92.60
32400;DHT22;45045;45.440;9.178;2023-04-03T03:43:43;15.40;92.60
32400;DHT22;45045;45.440;9.178;2023-04-03T03:46:08;15.30;92.80
32400;DHT22;45045;45.440;9.178;2023-04-03T03:48:36;15.30;93.10
32400;DHT22;45045;45.440;9.178;2023-04-03T03:51:02;15.10;92.80
32400;DHT22;45045;45.440;9.178;2023-04-03T03:53:28;15.10;92.80
32400;DHT22;45045;45.440;9.178;2023-04-03T03:55:56;15.10;93.30
32400;DHT22;45045;45.440;9.178;2023-04-03T03:58:21;15.00;93.30
32400;DHT22;45045;45.440;9.178;2023-04-03T04:00:47;15.00;93.20
32400;DHT22;45045;45.440;9.178;2023-04-03T04:03:12;15.00;92.90
32400;DHT22;45045;45.440;9.178;2023-04-03T04:05:38;14.90;92.50
32400;DHT22;45045;45.440;9.178;2023-04-03T04:08:04;14.90;92.70
32400;DHT22;45045;45.440;9.178;2023-04-03T04:16:38;14.80;93.60
32400;DHT22;45045;45.440;9.178;2023-04-03T04:19:26;14.70;93.90
32400;DHT22;45045;45.440;9.178;2023-04-03T04:22:09;14.60;93.70
32400;DHT22;45045;45.440;9.178;2023-04-03T04:24:46;14.60;93.40
32400;DHT22;45045;45.440;9.178;2023-04-03T04:27:34;14.60;93.80
32400;DHT22;45045;45.440;9.178;2023-04-03T04:30:10;14.60;93.70
32400;DHT22;45045;45.440;9.178;2023-04-03T04:32:52;14.60;93.90
32400;DHT22;45045;45.440;9.178;2023-04-03T04:35:25;14.60;94.30
32400;DHT22;45045;45.440;9.178;2023-04-03T04:38:26;14.50;94.10
32400;DHT22;45045;45.440;9.178;2023-04-03T04:41:16;14.40;93.80
32400;DHT22;45045;45.440;9.178;2023-04-03T04:46:29;14.40;94.50
32400;DHT22;45045;45.440;9.178;2023-04-03T04:48:55;14.40;94.70
32400;DHT22;45045;45.440;9.178;2023-04-03T04:51:43;14.40;94.60
32400;DHT22;45045;45.440;9.178;2023-04-03T04:54:29;14.40;95.00
32400;DHT22;45045;45.440;9.178;2023-04-03T04:56:57;14.40;94.80
32400;DHT22;45045;45.440;9.178;2023-04-03T04:59:38;14.30;95.00
32400;DHT22;45045;45.440;9.178;2023-04-03T05:02:26;14.30;95.20
32400;DHT22;45045;45.440;9.178;2023-04-03T05:05:04;14.30;95.40
32400;DHT22;45045;45.440;9.178;2023-04-03T05:07:33;14.30;95.70
32400;DHT22;45045;45.440;9.178;2023-04-03T05:10:02;14.30;95.70
32400;DHT22;45045;45.440;9.178;2023-04-03T05:12:30;14.30;95.90
32400;DHT22;45045;45.440;9.178;2023-04-03T05:14:55;14.40;95.80
32400;DHT22;45045;45.440;9.178;2023-04-03T05:17:24;14.30;95.60
32400;DHT22;45045;45.440;9.178;2023-04-03T05:19:54;15.00;98.90
32400;DHT22;45045;45.440;9.178;2023-04-03T05:25:39;16.90;97.70
32400;DHT22;45045;45.440;9.178;2023-04-03T05:28:26;17.60;97.20
32400;DHT22;45045;45.440;9.178;2023-04-03T05:33:58;18.20;95.80
32400;DHT22;45045;45.440;9.178;2023-04-03T05:36:44;18.40;94.90
32400;DHT22;45045;45.440;9.178;2023-04-03T05:39:19;18.50;94.20
32400;DHT22;45045;45.440;9.178;2023-04-03T05:41:45;18.60;93.60
32400;DHT22;45045;45.440;9.178;2023-04-03T05:44:13;18.60;93.20
32400;DHT22;45045;45.440;9.178;2023-04-03T05:46:41;18.70;92.70
32400;DHT22;45045;45.440;9.178;2023-04-03T05:49:10;18.70;92.40
32400;DHT22;45045;45.440;9.178;2023-04-03T05:51:38;18.80;91.90
32400;DHT22;45045;45.440;9.178;2023-04-03T06:03:39;18.90;90.70
32400;DHT22;45045;45.440;9.178;2023-04-03T06:06:42;18.90;90.50
32400;DHT22;45045;45.440;9.178;2023-04-03T06:46:37;19.10;88.00
32400;DHT22;45045;45.440;9.178;2023-04-03T06:49:08;19.10;87.70
32400;DHT22;45045;45.440;9.178;2023-04-03T06:54:44;19.00;85.40
32400;DHT22;45045;45.440;9.178;2023-04-03T06:57:32;18.30;76.70
32400;DHT22;45045;45.440;9.178;2023-04-03T07:00:00;17.60;77.20
32400;DHT22;45045;45.440;9.178;2023-04-03T07:02:34;17.50;77.40
32400;DHT22;45045;45.440;9.178;2023-04-03T07:05:10;17.60;77.10
32400;DHT22;45045;45.440;9.178;2023-04-03T07:07:38;17.60;76.90
32400;DHT22;45045;45.440;9.178;2023-04-03T07:10:06;17.60;76.30
32400;DHT22;45045;45.440;9.178;2023-04-03T07:12:47;17.30;76.10
32400;DHT22;45045;45.440;9.178;2023-04-03T07:15:18;17.20;75.80
32400;DHT22;45045;45.440;9.178;2023-04-03T07:21:21;16.80;78.20
32400;DHT22;45045;45.440;9.178;2023-04-03T07:23:50;17.00;78.20
32400;DHT22;45045;45.440;9.178;2023-04-03T07:26:21;17.10;77.60
32400;DHT22;45045;45.440;9.178;2023-04-03T07:41:05;17.70;76.80
32400;DHT22;45045;45.440;9.178;2023-04-03T08:08:37;18.40;76.70
32400;DHT22;45045;45.440;9.178;2023-04-03T08:11:16;18.30;76.50
32400;DHT22;45045;45.440;9.178;2023-04-03T08:13:53;18.20;77.00
32400;DHT22;45045;45.440;9.178;2023-04-03T08:16:56;18.10;78.10
32400;DHT22;45045;45.440;9.178;2023-04-03T08:19:50;18.50;78.60
32400;DHT22;45045;45.440;9.178;2023-04-03T08:22:23;18.60;76.80
32400;DHT22;45045;45.440;9.178;2023-04-03T08:25:08;18.60;76.20
32400;DHT22;45045;45.440;9.178;2023-04-03T08:27:54;18.80;76.20
32400;DHT22;45045;45.440;9.178;2023-04-03T08:30:44;18.60;76.20
32400;DHT22;45045;45.440;9.178;2023-04-03T08:33:09;18.70;76.00
32400;DHT22;45045;45.440;9.178;2023-04-03T08:36:03;18.90;76.80
32400;DHT22;45045;45.440;9.178;2023-04-03T08:38:28;19.20;78.30
32400;DHT22;45045;45.440;9.178;2023-04-03T08:41:49;19.40;75.20
32400;DHT22;45045;45.440;9.178;2023-04-03T08:56:45;19.30;75.60
32400;DHT22;45045;45.440;9.178;2023-04-03T08:59:12;19.10;76.10
32400;DHT22;45045;45.440;9.178;2023-04-03T09:01:39;19.30;76.10
32400;DHT22;45045;45.440;9.178;2023-04-03T09:04:13;19.50;75.30
32400;DHT22;45045;45.440;9.178;2023-04-03T09:06:49;19.60;74.80
32400;DHT22;45045;45.440;9.178;2023-04-03T09:21:33;20.10;74.20
32400;DHT22;45045;45.440;9.178;2023-04-03T09:24:05;20.30;74.70
32400;DHT22;45045;45.440;9.178;2023-04-03T09:27:08;20.60;74.50
32400;DHT22;45045;45.440;9.178;2023-04-03T09:35:32;21.30;71.00
32400;DHT22;45045;45.440;9.178;2023-04-03T09:38:14;21.30;71.30
32400;DHT22;45045;45.440;9.178;2023-04-03T09:41:13;21.30;70.90
32400;DHT22;45045;45.440;9.178;2023-04-03T09:44:20;21.50;70.60
32400;DHT22;45045;45.440;9.178;2023-04-03T10:06:24;22.20;67.80
32400;DHT22;45045;45.440;9.178;2023-04-03T10:08:59;22.50;68.90
32400;DHT22;45045;45.440;9.178;2023-04-03T10:11:26;22.40;70.20
32400;DHT22;45045;45.440;9.178;2023-04-03T10:13:53;22.60;69.20
32400;DHT22;45045;45.440;9.178;2023-04-03T10:21:46;22.60;71.90
32400;DHT22;45045;45.440;9.178;2023-04-03T10:35:16;22.80;69.40
32400;DHT22;45045;45.440;9.178;2023-04-03T10:47:21;23.50;63.80
32400;DHT22;45045;45.440;9.178;2023-04-03T10:52:40;23.30;71.60
32400;DHT22;45045;45.440;9.178;2023-04-03T11:04:39;23.80;60.50
32400;DHT22;45045;45.440;9.178;2023-04-03T11:46:04;24.90;58.10
32400;DHT22;45045;45.440;9.178;2023-04-03T11:50:59;25.10;59.10
32400;DHT22;45045;45.440;9.178;2023-04-03T11:53:32;25.00;60.40
32400;DHT22;45045;45.440;9.178;2023-04-03T11:56:01;24.90;62.50
32400;DHT22;45045;45.440;9.178;2023-04-03T11:58:32;24.70;62.40
32400;DHT22;45045;45.440;9.178;2023-04-03T15:42:11;20.80;58.50
32400;DHT22;45045;45.440;9.178;2023-04-03T15:44:37;21.20;67.10
32400;DHT22;45045;45.440;9.178;2023-04-03T15:47:06;22.00;68.90
32400;DHT22;45045;45.440;9.178;2023-04-03T15:49:39;22.50;68.80
32400;DHT22;45045;45.440;9.178;2023-04-03T15:52:05;22.90;68.50
32400;DHT22;45045;45.440;9.178;2023-04-03T15:54:30;23.10;68.70
32400;DHT22;45045;45.440;9.178;2023-04-03T15:57:04;23.30;70.10
32400;DHT22;45045;45.440;9.178;2023-04-03T15:59:30;23.40;71.40
32400;DHT22;45045;45.440;9.178;2023-04-03T16:37:36;19.80;59.10
32400;DHT22;45045;45.440;9.178;2023-04-03T16:43:31;19.90;60.70
32400;DHT22;45045;45.440;9.178;2023-04-03T17:08:23;19.20;59.90
32400;DHT22;45045;45.440;9.178;2023-04-03T17:10:54;19.60;67.30
32400;DHT22;45045;45.440;9.178;2023-04-03T17:13:42;20.30;62.70
32400;DHT22;45045;45.440;9.178;2023-04-03T17:28:17;21.70;72.70
32400;DHT22;45045;45.440;9.178;2023-04-03T17:30:43;22.00;73.20
32400;DHT22;45045;45.440;9.178;2023-04-03T17:55:56;18.60;59.90
32400;DHT22;45045;45.440;9.178;2023-04-03T18:02:11;18.40;60.40
32400;DHT22;45045;45.440;9.178;2023-04-03T18:08:03;18.20;60.60
32400;DHT22;45045;45.440;9.178;2023-04-03T18:10:58;18.10;60.90
32400;DHT22;45045;45.440;9.178;2023-04-03T18:13:45;18.00;61.00
32400;DHT22;45045;45.440;9.178;2023-04-03T18:16:26;18.80;64.30
32400;DHT22;45045;45.440;9.178;2023-04-03T18:18:51;19.10;61.90
32400;DHT22;45045;45.440;9.178;2023-04-03T18:21:17;19.90;81.60
32400;DHT22;45045;45.440;9.178;2023-04-03T18:23:46;20.50;80.00
32400;DHT22;45045;45.440;9.178;2023-04-03T18:26:12;20.90;68.80
32400;DHT22;45045;45.440;9.178;2023-04-03T18:28:45;19.70;57.80
32400;DHT22;45045;45.440;9.178;2023-04-03T18:31:15;18.90;58.90
32400;DHT22;45045;45.440;9.178;2023-04-03T18:33:42;18.50;60.00
32400;DHT22;45045;45.440;9.178;2023-04-03T18:36:13;18.20;61.00
32400;DHT22;45045;45.440;9.178;2023-04-03T19:00:27;17.10;63.70
32400;DHT22;45045;45.440;9.178;2023-04-03T19:03:10;17.00;63.50
32400;DHT22;45045;45.440;9.178;2023-04-03T19:09:08;17.00;63.00
32400;DHT22;45045;45.440;9.178;2023-04-03T19:11:44;16.90;63.00
32400;DHT22;45045;45.440;9.178;2023-04-03T19:14:19;17.10;63.20
32400;DHT22;45045;45.440;9.178;2023-04-03T19:17:05;17.40;62.20
32400;DHT22;45045;45.440;9.178;2023-04-03T19:22:50;16.80;60.60
32400;DHT22;45045;45.440;9.178;2023-04-03T19:25:29;16.60;61.50
32400;DHT22;45045;45.440;9.178;2023-04-03T19:28:22;16.40;61.70
32400;DHT22;45045;45.440;9.178;2023-04-03T19:31:12;16.50;61.60
32400;DHT22;45045;45.440;9.178;2023-04-03T19:33:40;16.50;61.30
32400;DHT22;45045;45.440;9.178;2023-04-03T19:39:56;16.30;60.90
32400;DHT22;45045;45.440;9.178;2023-04-03T19:42:23;16.20;60.90
32400;DHT22;45045;45.440;9.178;2023-04-03T19:45:13;16.20;61.00
32400;DHT22;45045;45.440;9.178;2023-04-03T19:47:53;16.10;61.20
32400;DHT22;45045;45.440;9.178;2023-04-03T19:53:24;16.00;61.30
32400;DHT22;45045;45.440;9.178;2023-04-03T19:55:55;16.10;61.40
32400;DHT22;45045;45.440;9.178;2023-04-03T19:58:39;16.10;61.00
32400;DHT22;45045;45.440;9.178;2023-04-03T20:01:27;16.00;60.90
32400;DHT22;45045;45.440;9.178;2023-04-03T20:04:00;15.90;61.10
32400;DHT22;45045;45.440;9.178;2023-04-03T20:06:27;15.90;61.10
32400;DHT22;45045;45.440;9.178;2023-04-03T20:08:52;15.80;61.20
32400;DHT22;45045;45.440;9.178;2023-04-03T20:11:18;15.80;61.40
32400;DHT22;45045;45.440;9.178;2023-04-03T20:13:49;15.70;60.70
32400;DHT22;45045;45.440;9.178;2023-04-03T20:16:14;15.70;60.90
32400;DHT22;45045;45.440;9.178;2023-04-03T20:18:41;15.70;60.80
32400;DHT22;45045;45.440;9.178;2023-04-03T20:21:07;15.80;60.50
32400;DHT22;45045;45.440;9.178;2023-04-03T20:23:33;15.80;61.10
32400;DHT22;45045;45.440;9.178;2023-04-03T20:26:17;15.70;60.50
32400;DHT22;45045;45.440;9.178;2023-04-03T20:28:48;15.70;60.40
32400;DHT22;45045;45.440;9.178;2023-04-03T20:31:14;15.60;60.50
32400;DHT22;45045;45.440;9.178;2023-04-03T20:33:42;15.50;60.60
32400;DHT22;45045;45.440;9.178;2023-04-03T20:36:09;15.60;60.40
32400;DHT22;45045;45.440;9.178;2023-04-03T20:38:39;15.60;60.00
32400;DHT22;45045;45.440;9.178;2023-04-03T20:41:07;15.60;59.90
32400;DHT22;45045;45.440;9.178;2023-04-03T20:43:41;15.50;59.90
32400;DHT22;45045;45.440;9.178;2023-04-03T20:46:09;15.60;59.80
32400;DHT22;45045;45.440;9.178;2023-04-03T20:48:35;15.40;59.80
32400;DHT22;45045;45.440;9.178;2023-04-03T20:51:09;15.50;59.60
32400;DHT22;45045;45.440;9.178;2023-04-03T20:53:38;15.50;59.20
32400;DHT22;45045;45.440;9.178;2023-04-03T20:56:07;15.40;59.40
32400;DHT22;45045;45.440;9.178;2023-04-03T20:58:33;15.40;59.60
32400;DHT22;45045;45.440;9.178;2023-04-03T21:00:59;15.20;59.70
32400;DHT22;45045;45.440;9.178;2023-04-03T21:03:26;15.30;59.90
32400;DHT22;45045;45.440;9.178;2023-04-03T21:25:10;15.20;60.00
32400;DHT22;45045;45.440;9.178;2023-04-03T21:27:38;15.10;60.30
32400;DHT22;45045;45.440;9.178;2023-04-03T21:30:04;15.10;59.80
32400;DHT22;45045;45.440;9.178;2023-04-03T21:32:33;15.10;59.90
32400;DHT22;45045;45.440;9.178;2023-04-03T21:35:05;15.10;59.80
32400;DHT22;45045;45.440;9.178;2023-04-03T21:37:36;15.20;60.00
32400;DHT22;45045;45.440;9.178;2023-04-03T21:43:17;15.20;59.20
32400;DHT22;45045;45.440;9.178;2023-04-03T21:45:43;15.10;59.30
32400;DHT22;45045;45.440;9.178;2023-04-03T21:48:08;15.10;59.10
32400;DHT22;45045;45.440;9.178;2023-04-03T21:50:34;15.10;59.30
32400;DHT22;45045;45.440;9.178;2023-04-03T21:53:01;15.10;59.00
32400;DHT22;45045;45.440;9.178;2023-04-03T21:55:29;15.20;59.90
32400;DHT22;45045;45.440;9.178;2023-04-03T21:57:55;15.20;58.50
32400;DHT22;45045;45.440;9.178;2023-04-03T22:00:23;15.20;58.40
32400;DHT22;45045;45.440;9.178;2023-04-03T22:03:08;15.10;58.10
32400;DHT22;45045;45.440;9.178;2023-04-03T22:05:37;15.10;58.30
32400;DHT22;45045;45.440;9.178;2023-04-03T22:08:06;15.10;58.30
32400;DHT22;45045;45.440;9.178;2023-04-03T22:10:31;15.10;58.10
32400;DHT22;45045;45.440;9.178;2023-04-03T22:13:07;15.10;58.10
32400;DHT22;45045;45.440;9.178;2023-04-03T22:15:35;14.90;58.40
32400;DHT22;45045;45.440;9.178;2023-04-03T22:20:53;15.20;58.50
32400;DHT22;45045;45.440;9.178;2023-04-03T22:23:21;15.00;58.20
32400;DHT22;45045;45.440;9.178;2023-04-03T22:26:00;15.00;58.70
32400;DHT22;45045;45.440;9.178;2023-04-03T22:28:26;14.90;58.70
32400;DHT22;45045;45.440;9.178;2023-04-03T22:30:57;14.90;58.70
32400;DHT22;45045;45.440;9.178;2023-04-03T22:33:42;14.90;58.90
32400;DHT22;45045;45.440;9.178;2023-04-03T22:36:09;14.80;58.90
32400;DHT22;45045;45.440;9.178;2023-04-03T22:38:37;14.70;59.30
32400;DHT22;45045;45.440;9.178;2023-04-03T22:41:06;14.60;59.60
32400;DHT22;45045;45.440;9.178;2023-04-03T22:43:34;14.60;59.80
32400;DHT22;45045;45.440;9.178;2023-04-03T22:46:06;14.60;59.90
32400;DHT22;45045;45.440;9.178;2023-04-03T22:48:35;14.60;59.70
32400;DHT22;45045;45.440;9.178;2023-04-03T22:51:07;14.60;59.80
32400;DHT22;45045;45.440;9.178;2023-04-03T22:53:37;14.60;59.90
32400;DHT22;45045;45.440;9.178;2023-04-03T22:56:03;14.60;59.90
32400;DHT22;45045;45.440;9.178;2023-04-03T22:58:49;14.40;60.40
32400;DHT22;45045;45.440;9.178;2023-04-03T23:01:25;14.60;61.00
32400;DHT22;45045;45.440;9.178;2023-04-03T23:03:51;14.60;59.90
32400;DHT22;45045;45.440;9.178;2023-04-03T23:06:16;14.50;60.10
32400;DHT22;45045;45.440;9.178;2023-04-03T23:08:44;14.60;61.00
32400;DHT22;45045;45.440;9.178;2023-04-03T23:11:10;14.60;60.80
32400;DHT22;45045;45.440;9.178;2023-04-03T23:13:35;14.60;60.20
32400;DHT22;45045;45.440;9.178;2023-04-03T23:16:08;14.50;60.40
32400;DHT22;45045;45.440;9.178;2023-04-03T23:18:37;14.30;61.00
32400;DHT22;45045;45.440;9.178;2023-04-03T23:21:06;14.40;61.30
32400;DHT22;45045;45.440;9.178;2023-04-03T23:23:34;14.50;61.20
32400;DHT22;45045;45.440;9.178;2023-04-03T23:26:07;14.50;61.40
32400;DHT22;45045;45.440;9.178;2023-04-03T23:28:33;14.60;61.70
32400;DHT22;45045;45.440;9.178;2023-04-03T23:31:00;14.60;61.50
32400;DHT22;45045;45.440;9.178;2023-04-03T23:33:35;14.60;61.50
32400;DHT22;45045;45.440;9.178;2023-04-03T23:36:09;14.60;61.50
32400;DHT22;45045;45.440;9.178;2023-04-03T23:38:37;14.60;61.80
32400;DHT22;45045;45.440;9.178;2023-04-03T23:41:10;14.50;61.80
32400;DHT22;45045;45.440;9.178;2023-04-03T23:43:35;14.50;62.00
32400;DHT22;45045;45.440;9.178;2023-04-03T23:46:04;14.50;62.10
32400;DHT22;45045;45.440;9.178;2023-04-03T23:48:39;14.50;62.20
32400;DHT22;45045;45.440;9.178;2023-04-03T23:51:04;14.40;62.30
32400;DHT22;45045;45.440;9.178;2023-04-03T23:53:30;14.30;62.20
32400;DHT22;45045;45.440;9.178;2023-04-03T23:55:58;14.30;62.70
32400;DHT22;45045;45.440;9.178;2023-04-03T23:58:23;14.30;62.20
